Time;durP1;ratioP1;P1;durP2;ratioP2;P2;SDS_P1;SDS_P2;PMS_P1;PMS_P2;Temp;Humidity;BMP_temperature;BMP_pressure;BME280_temperature;BME280_humidity;BME280_pressure;Samples;Min_cycle;Max_cycle;Signal;HPM_P1;HPM_P2
2022/08/23 00:01:11;;;;;;;2.55;1.50;;;20.10;99.90;;;;;;5013453;28;20268;-59
2022/08/23 00:03:37;;;;;;;1.73;1.60;;;20.00;99.90;;;;;;5013361;28;20256;-61
2022/08/23 00:06:04;;;;;;;2.40;1.67;;;19.90;99.90;;;;;;5013700;28;20195;-58
2022/08/23 00:08:30;;;;;;;2.60;1.50;;;19.80;99.90;;;;;;5013219;28;20572;-58
2022/08/23 00:10:57;;;;;;;1.48;1.13;;;19.80;99.90;;;;;;5012221;28;20177;-59
2022/08/23 00:13:23;;;;;;;1.88;1.38;;;19.80;99.90;;;;;;5013196;28;20184;-58
2022/08/23 00:15:49;;;;;;;1.20;1.10;;;19.70;99.90;;;;;;5013358;28;20183;-58
2022/08/23 00:18:17;;;;;;;1.70;1.60;;;19.70;99.90;;;;;;5012315;28;20180;-58
2022/08/23 00:20:43;;;;;;;1.80;1.50;;;19.70;99.90;;;;;;5013573;28;20262;-58
2022/08/23 00:23:09;;;;;;;2.53;1.77;;;19.70;99.90;;;;;;5013203;28;20655;-58
2022/08/23 00:25:35;;;;;;;3.95;1.50;;;19.70;99.90;;;;;;5013317;28;20223;-59
2022/08/23 00:28:01;;;;;;;4.20;2.25;;;19.70;99.90;;;;;;5012971;28;20220;-58
2022/08/23 00:30:27;;;;;;;2.47;1.98;;;19.60;99.90;;;;;;5013212;28;20267;-58
2022/08/23 00:32:53;;;;;;;2.25;1.58;;;19.60;99.90;;;;;;5013103;28;20203;-58
2022/08/23 00:35:19;;;;;;;2.25;1.70;;;19.50;99.90;;;;;;5011835;28;20707;-58
2022/08/23 00:37:45;;;;;;;1.90;1.70;;;19.40;99.90;;;;;;5012906;28;20256;-58
2022/08/23 00:40:14;;;;;;;2.40;1.85;;;19.30;99.90;;;;;;5011936;28;20329;-59
2022/08/23 00:48:40;;;;;;;2.00;1.77;;;19.70;99.90;;;;;;5013303;28;20284;-58
2022/08/23 00:51:21;;;;;;;1.73;1.60;;;19.60;99.90;;;;;;5016626;28;20173;-59
2022/08/23 00:53:52;;;;;;;2.13;1.85;;;19.70;99.90;;;;;;5016594;28;20242;-59
2022/08/23 00:56:21;;;;;;;1.92;1.77;;;19.60;99.90;;;;;;5016463;28;20183;-59
2022/08/23 00:58:47;;;;;;;2.53;2.05;;;19.60;99.90;;;;;;5016235;28;20184;-59
2022/08/23 01:01:14;;;;;;;2.92;2.00;;;19.50;99.90;;;;;;4998933;28;20526;-58
2022/08/23 01:03:43;;;;;;;2.72;1.80;;;19.50;99.90;;;;;;5016270;28;20181;-58
2022/08/23 01:06:15;;;;;;;1.95;1.77;;;19.60;99.90;;;;;;5016196;28;20176;-59
2022/08/23 01:08:48;;;;;;;1.98;1.58;;;19.50;99.90;;;;;;5016227;28;20223;-59
2022/08/23 01:11:41;;;;;;;1.98;1.52;;;19.40;99.90;;;;;;5016040;28;20171;-59
2022/08/23 01:14:28;;;;;;;1.95;1.50;;;19.30;99.90;;;;;;5016138;28;20215;-58
2022/08/23 01:17:15;;;;;;;1.60;1.50;;;19.30;99.90;;;;;;5015038;28;20574;-59
2022/08/23 01:19:58;;;;;;;2.83;2.25;;;19.30;99.90;;;;;;5016212;28;20206;-58
2022/08/23 01:22:29;;;;;;;1.95;1.73;;;19.30;99.90;;;;;;5014922;28;20169;-59
2022/08/23 01:24:55;;;;;;;2.88;1.90;;;19.30;99.90;;;;;;5014693;28;20184;-59
2022/08/23 01:27:21;;;;;;;1.98;1.55;;;19.30;99.90;;;;;;5014762;28;20220;-58
2022/08/23 01:29:47;;;;;;;2.03;1.60;;;19.20;99.90;;;;;;5015574;28;20650;-59
2022/08/23 01:32:13;;;;;;;2.47;1.95;;;19.20;99.90;;;;;;5015719;28;20266;-59
2022/08/23 01:34:39;;;;;;;3.17;1.75;;;19.10;99.90;;;;;;5015914;28;20177;-58
2022/08/23 01:37:07;;;;;;;2.60;2.00;;;19.00;99.90;;;;;;5015759;28;20637;-58
2022/08/23 01:39:36;;;;;;;2.42;1.98;;;18.90;99.90;;;;;;4998268;28;20193;-59
2022/08/23 01:42:03;;;;;;;1.88;1.77;;;19.00;99.90;;;;;;5014288;28;20169;-58
2022/08/23 01:44:29;;;;;;;2.53;1.90;;;18.90;99.90;;;;;;5015424;28;20180;-58
2022/08/23 01:46:54;;;;;;;2.75;2.00;;;18.90;99.90;;;;;;5015339;28;20212;-59
2022/08/23 01:49:20;;;;;;;2.55;2.05;;;18.90;99.90;;;;;;5014280;28;20180;-58
2022/08/23 01:51:46;;;;;;;2.92;1.90;;;18.90;99.90;;;;;;5015436;28;20257;-59
2022/08/23 01:54:12;;;;;;;2.05;1.70;;;18.90;99.90;;;;;;5015391;28;20256;-59
2022/08/23 01:56:40;;;;;;;2.35;2.00;;;18.90;99.90;;;;;;5014146;28;20177;-59
2022/08/23 01:59:10;;;;;;;2.80;1.83;;;18.80;99.90;;;;;;5015451;28;20538;-58
2022/08/23 02:01:35;;;;;;;2.88;1.98;;;18.80;99.90;;;;;;5013379;28;20177;-59
2022/08/23 02:04:01;;;;;;;2.13;1.92;;;18.70;99.90;;;;;;5014076;28;20280;-59
2022/08/23 02:06:28;;;;;;;3.08;2.13;;;18.50;99.90;;;;;;5015116;28;20200;-58
2022/08/23 02:08:59;;;;;;;3.45;2.10;;;18.60;99.90;;;;;;5015049;28;20546;-59
2022/08/23 02:11:26;;;;;;;3.63;2.42;;;18.60;99.90;;;;;;5013669;28;20187;-59
2022/08/23 02:13:54;;;;;;;3.03;2.45;;;18.70;99.90;;;;;;5015168;28;20169;-58
2022/08/23 02:16:32;;;;;;;2.83;2.55;;;18.70;99.90;;;;;;5013889;28;20173;-59
2022/08/23 02:19:01;;;;;;;2.67;2.30;;;18.70;99.90;;;;;;5013692;28;20169;-58
2022/08/23 02:21:30;;;;;;;3.00;1.92;;;18.60;99.90;;;;;;5014757;28;20184;-58
2022/08/23 02:24:02;;;;;;;2.90;2.05;;;18.60;99.90;;;;;;5013404;28;20172;-58
2022/08/23 02:26:28;;;;;;;2.97;2.20;;;18.70;99.90;;;;;;5015184;28;20208;-58
2022/08/23 02:28:53;;;;;;;4.18;2.75;;;18.70;99.90;;;;;;5014563;28;20195;-61
2022/08/23 02:31:20;;;;;;;4.03;2.85;;;18.80;99.90;;;;;;4997306;28;20177;-59
2022/08/23 02:33:47;;;;;;;3.67;2.78;;;18.70;99.90;;;;;;5014674;28;20299;-59
2022/08/23 02:36:13;;;;;;;5.47;2.85;;;18.60;99.90;;;;;;5013363;28;20169;-58
2022/08/23 02:38:39;;;;;;;3.90;2.63;;;18.70;99.90;;;;;;5014397;28;20169;-58
2022/08/23 02:41:05;;;;;;;4.28;3.13;;;18.60;99.90;;;;;;5014585;28;20180;-58
2022/08/23 02:43:30;;;;;;;3.67;2.53;;;18.60;99.90;;;;;;5013356;28;20180;-58
2022/08/23 02:45:56;;;;;;;3.90;3.10;;;18.50;99.90;;;;;;5014427;28;20177;-58
2022/08/23 02:48:22;;;;;;;3.47;3.00;;;18.50;99.90;;;;;;5013099;28;20220;-58
2022/08/23 02:50:48;;;;;;;3.15;2.70;;;18.50;99.90;;;;;;4996813;28;20200;-58
2022/08/23 02:53:15;;;;;;;3.90;2.72;;;18.50;99.90;;;;;;5014017;28;20607;-58
2022/08/23 02:55:45;;;;;;;3.20;2.63;;;18.40;99.90;;;;;;5013185;28;20264;-58
2022/08/23 02:58:11;;;;;;;3.80;2.63;;;18.50;99.90;;;;;;5014154;28;20180;-59
2022/08/23 03:00:37;;;;;;;4.57;2.90;;;18.50;99.90;;;;;;5014242;28;20173;-59
2022/08/23 03:03:04;;;;;;;3.78;2.42;;;18.40;99.90;;;;;;5014051;28;20188;-58
2022/08/23 03:05:30;;;;;;;3.05;2.55;;;18.40;99.90;;;;;;5014050;28;20177;-59
2022/08/23 03:07:56;;;;;;;3.92;3.35;;;18.40;99.90;;;;;;5013904;28;20208;-59
2022/08/23 03:10:23;;;;;;;3.03;2.60;;;18.50;99.90;;;;;;5012699;28;20573;-59
2022/08/23 03:12:49;;;;;;;3.83;2.55;;;18.50;99.90;;;;;;5013105;28;20201;-58
2022/08/23 03:15:14;;;;;;;4.13;3.10;;;18.50;99.90;;;;;;5013803;28;20180;-60
2022/08/23 03:17:40;;;;;;;3.97;2.60;;;18.50;99.90;;;;;;5012639;28;20184;-59
2022/08/23 03:20:07;;;;;;;4.07;2.95;;;18.50;99.90;;;;;;5013732;28;20183;-58
2022/08/23 03:22:33;;;;;;;2.95;2.45;;;18.40;99.90;;;;;;4996354;28;20192;-58
2022/08/23 03:25:00;;;;;;;5.22;3.45;;;18.30;99.90;;;;;;5013927;28;20173;-59
2022/08/23 03:27:26;;;;;;;3.88;3.25;;;18.20;99.90;;;;;;5013567;28;20685;-59
2022/08/23 03:29:51;;;;;;;3.65;2.90;;;18.20;99.90;;;;;;5013497;28;20200;-58
2022/08/23 03:32:17;;;;;;;3.85;2.92;;;18.10;99.90;;;;;;5013732;28;20176;-58
2022/08/23 03:34:43;;;;;;;4.43;2.80;;;18.10;99.90;;;;;;5012724;28;20630;-59
2022/08/23 03:37:09;;;;;;;3.75;2.83;;;18.20;99.90;;;;;;4996261;28;20687;-59
2022/08/23 03:39:35;;;;;;;3.90;2.78;;;18.10;99.90;;;;;;5013727;28;20165;-58
2022/08/23 03:42:01;;;;;;;3.10;2.78;;;18.10;99.90;;;;;;5012486;28;20545;-59
2022/08/23 03:44:27;;;;;;;3.63;2.72;;;18.10;99.90;;;;;;5012236;28;20176;-59
2022/08/23 03:46:53;;;;;;;3.70;2.97;;;18.10;99.90;;;;;;5012436;28;20208;-58
2022/08/23 03:49:18;;;;;;;3.50;2.60;;;18.10;99.90;;;;;;5013322;28;20184;-59
2022/08/23 03:51:44;;;;;;;4.50;3.05;;;18.10;99.90;;;;;;5012140;28;20233;-58
2022/08/23 03:54:10;;;;;;;3.88;3.40;;;18.00;99.90;;;;;;5012375;28;20184;-58
2022/08/23 03:56:48;;;;;;;5.28;2.53;;;17.90;99.90;;;;;;4995931;28;20281;-59
2022/08/23 03:59:14;;;;;;;2.80;2.42;;;17.90;99.90;;;;;;5013451;28;20207;-59
2022/08/23 04:01:39;;;;;;;3.75;3.10;;;17.90;99.90;;;;;;5013654;28;20590;-58
2022/08/23 04:04:05;;;;;;;4.35;3.15;;;17.90;99.90;;;;;;5013429;28;20216;-58
2022/08/23 04:06:31;;;;;;;4.18;3.08;;;17.90;99.90;;;;;;5012216;28;20228;-59
2022/08/23 04:08:58;;;;;;;3.83;2.95;;;18.00;99.90;;;;;;5013436;28;20172;-58
2022/08/23 04:11:24;;;;;;;4.13;3.08;;;17.90;99.90;;;;;;5013334;28;20192;-59
2022/08/23 04:13:50;;;;;;;3.53;2.80;;;17.80;99.90;;;;;;5013227;28;20270;-59
2022/08/23 04:16:17;;;;;;;5.82;3.30;;;17.80;99.90;;;;;;5013212;28;20176;-58
2022/08/23 04:18:44;;;;;;;3.35;2.47;;;17.80;99.90;;;;;;5011447;28;20196;-58
2022/08/23 04:21:14;;;;;;;4.00;3.00;;;17.90;99.90;;;;;;5013345;28;20219;-58
2022/08/23 04:23:40;;;;;;;3.30;2.83;;;18.00;99.90;;;;;;5012484;28;20227;-58
2022/08/23 04:26:06;;;;;;;3.40;2.85;;;18.10;99.90;;;;;;5015814;28;20562;-58
2022/08/23 04:28:32;;;;;;;4.80;3.30;;;18.10;99.90;;;;;;5017035;28;20581;-58
2022/08/23 04:30:59;;;;;;;3.70;2.90;;;18.10;99.90;;;;;;5015676;28;20243;-58
2022/08/23 04:33:30;;;;;;;3.08;2.45;;;18.00;99.90;;;;;;5015806;28;20184;-59
2022/08/23 04:35:57;;;;;;;2.75;2.50;;;18.00;99.90;;;;;;5016854;28;20235;-59
2022/08/23 04:38:23;;;;;;;4.32;2.55;;;17.90;99.90;;;;;;5016817;28;20223;-58
2022/08/23 04:43:33;;;;;;;3.90;2.75;;;18.00;99.90;;;;;;5016706;28;20184;-59
2022/08/23 04:45:59;;;;;;;3.92;3.00;;;18.00;99.90;;;;;;5016803;28;20583;-59
2022/08/23 04:48:25;;;;;;;3.85;2.85;;;18.10;99.90;;;;;;5015441;28;20290;-59
2022/08/23 04:50:51;;;;;;;3.92;2.60;;;18.10;99.90;;;;;;5016635;28;20201;-48
2022/08/23 04:53:17;;;;;;;4.25;2.60;;;18.00;99.90;;;;;;5016435;28;20590;-58
2022/08/23 04:55:43;;;;;;;3.60;2.97;;;18.00;99.90;;;;;;5013780;28;20227;-58
2022/08/23 04:58:09;;;;;;;3.20;2.47;;;18.00;99.90;;;;;;4998704;28;20176;-58
2022/08/23 05:00:35;;;;;;;3.55;3.08;;;18.00;99.90;;;;;;5015380;28;20176;-58
2022/08/23 05:03:00;;;;;;;4.40;2.90;;;18.00;99.90;;;;;;5016497;28;20180;-58
2022/08/23 05:05:26;;;;;;;4.57;2.60;;;18.00;99.90;;;;;;5016291;28;20177;-58
2022/08/23 05:07:52;;;;;;;3.08;2.42;;;18.00;99.90;;;;;;5016202;28;20212;-58
2022/08/23 05:10:19;;;;;;;2.40;2.03;;;18.00;99.90;;;;;;5016204;28;20649;-58
2022/08/23 05:12:46;;;;;;;4.20;2.75;;;18.10;99.90;;;;;;5016059;28;20176;-57
2022/08/23 05:15:12;;;;;;;3.17;2.60;;;18.00;99.90;;;;;;5016336;28;20260;-59
2022/08/23 05:17:38;;;;;;;3.08;2.53;;;18.00;99.90;;;;;;5016193;28;20177;-58
2022/08/23 05:20:06;;;;;;;3.28;2.70;;;18.10;99.90;;;;;;5016019;28;20231;-58
2022/08/23 05:22:34;;;;;;;4.03;2.50;;;18.20;99.90;;;;;;5016086;28;20589;-59
2022/08/23 05:24:59;;;;;;;3.05;2.33;;;18.20;99.90;;;;;;5014687;28;20169;-58
2022/08/23 05:27:25;;;;;;;3.35;2.60;;;18.20;99.90;;;;;;5015551;28;20546;-58
2022/08/23 05:29:53;;;;;;;6.20;2.65;;;18.30;99.90;;;;;;5014609;28;20204;-57
2022/08/23 05:32:20;;;;;;;3.20;2.58;;;18.30;99.90;;;;;;5015869;28;20236;-58
2022/08/23 05:34:46;;;;;;;4.05;2.25;;;18.40;99.90;;;;;;5015442;28;20267;-58
2022/08/23 05:37:12;;;;;;;2.85;2.20;;;18.40;99.90;;;;;;5014845;28;20263;-58
2022/08/23 05:39:38;;;;;;;3.10;2.67;;;18.60;99.90;;;;;;5015549;28;20169;-59
2022/08/23 05:42:05;;;;;;;3.30;2.35;;;18.60;99.90;;;;;;5014264;28;20665;-57
2022/08/23 05:44:31;;;;;;;3.72;2.58;;;18.70;99.90;;;;;;5014550;28;20717;-58
2022/08/23 05:46:56;;;;;;;4.15;2.65;;;18.80;99.90;;;;;;5015521;28;20295;-58
2022/08/23 05:49:22;;;;;;;3.13;2.05;;;19.00;99.90;;;;;;5014289;28;20545;-58
2022/08/23 05:51:47;;;;;;;3.03;2.22;;;19.00;99.90;;;;;;5014251;28;20172;-58
2022/08/23 05:54:13;;;;;;;3.65;2.47;;;19.00;99.90;;;;;;5014190;28;20268;-58
2022/08/23 05:56:41;;;;;;;3.45;2.45;;;19.00;99.90;;;;;;5015077;28;20660;-57
2022/08/23 05:59:11;;;;;;;3.63;2.13;;;19.10;99.90;;;;;;5015347;28;20546;-58
2022/08/23 06:01:38;;;;;;;2.78;2.03;;;19.20;99.90;;;;;;5013999;28;20177;-58
2022/08/23 06:04:06;;;;;;;4.15;2.10;;;19.20;99.90;;;;;;5015068;28;20629;-58
2022/08/23 06:06:33;;;;;;;3.05;2.25;;;19.10;99.90;;;;;;5014913;28;20254;-58
2022/08/23 06:09:00;;;;;;;2.85;2.30;;;19.10;99.90;;;;;;5013889;28;20180;-58
2022/08/23 06:11:28;;;;;;;3.72;2.22;;;19.10;99.90;;;;;;5015170;28;20179;-57
2022/08/23 06:13:57;;;;;;;2.38;2.10;;;19.10;99.90;;;;;;5015112;28;20532;-56
2022/08/23 06:16:32;;;;;;;2.72;1.95;;;19.20;99.90;;;;;;5014870;28;20177;-58
2022/08/23 06:19:01;;;;;;;2.85;2.47;;;19.20;99.90;;;;;;5014937;28;20191;-58
2022/08/23 06:21:27;;;;;;;3.28;2.30;;;19.30;99.90;;;;;;5014698;28;20204;-57
2022/08/23 06:23:54;;;;;;;3.30;2.50;;;19.50;99.90;;;;;;5015304;28;20172;-58
2022/08/23 06:26:30;;;;;;;3.60;3.05;;;19.60;99.90;;;;;;5013492;28;20188;-58
2022/08/23 06:28:57;;;;;;;3.40;2.65;;;19.90;99.90;;;;;;5014541;28;20202;-58
2022/08/23 06:31:44;;;;;;;3.45;2.72;;;20.10;99.90;;;;;;5014649;28;20199;-58
2022/08/23 06:34:17;;;;;;;5.53;2.88;;;20.20;99.90;;;;;;5014493;28;20172;-58
2022/08/23 06:36:44;;;;;;;4.85;3.03;;;20.40;99.90;;;;;;5013397;28;20611;-58
2022/08/23 06:39:10;;;;;;;3.80;2.78;;;20.70;99.90;;;;;;5014616;28;20653;-58
2022/08/23 06:41:37;;;;;;;6.10;3.42;;;20.70;99.90;;;;;;5014489;28;20612;-58
2022/08/23 06:44:03;;;;;;;5.15;2.78;;;20.90;99.90;;;;;;5014415;28;20176;-58
2022/08/23 06:46:29;;;;;;;3.13;2.40;;;21.20;99.90;;;;;;5014025;28;20212;-58
2022/08/23 06:48:59;;;;;;;4.88;2.60;;;21.40;99.90;;;;;;5014557;28;20618;-58
2022/08/23 06:51:37;;;;;;;4.38;2.58;;;21.50;99.90;;;;;;4997308;28;20172;-58
2022/08/23 06:54:07;;;;;;;3.70;2.47;;;21.70;99.90;;;;;;5014364;28;20199;-57
2022/08/23 06:56:34;;;;;;;3.33;2.10;;;21.60;99.90;;;;;;5014299;28;20272;-58
2022/08/23 06:59:02;;;;;;;4.95;2.38;;;21.70;99.90;;;;;;5014375;28;20610;-58
2022/08/23 07:01:47;;;;;;;3.45;2.15;;;21.70;99.90;;;;;;5014239;28;20181;-58
2022/08/23 07:04:16;;;;;;;3.20;2.22;;;21.80;99.90;;;;;;5014194;28;20214;-58
2022/08/23 07:06:43;;;;;;;3.08;2.22;;;21.90;99.90;;;;;;5013972;28;20549;-58
2022/08/23 07:09:09;;;;;;;2.83;2.00;;;22.00;99.90;;;;;;5013973;28;20181;-58
2022/08/23 07:11:35;;;;;;;3.90;2.58;;;21.90;99.90;;;;;;5012668;28;20650;-58
2022/08/23 07:14:04;;;;;;;2.78;2.10;;;21.80;99.90;;;;;;5014039;28;20176;-58
2022/08/23 07:16:37;;;;;;;2.95;2.10;;;22.00;99.90;;;;;;5012755;28;20207;-58
2022/08/23 07:19:03;;;;;;;3.03;2.25;;;22.10;99.90;;;;;;5013848;28;20188;-57
2022/08/23 07:21:29;;;;;;;5.10;2.33;;;22.10;99.90;;;;;;5012605;28;20213;-57
2022/08/23 07:23:54;;;;;;;2.80;1.80;;;22.20;99.90;;;;;;5013765;28;20201;-58
2022/08/23 07:26:22;;;;;;;3.08;1.92;;;22.30;99.90;;;;;;5013880;28;20252;-60
2022/08/23 07:28:47;;;;;;;2.97;1.95;;;22.40;99.90;;;;;;5012399;28;20199;-58
2022/08/23 07:31:18;;;;;;;2.58;1.70;;;22.60;99.90;;;;;;5013639;28;20554;-58
2022/08/23 07:33:44;;;;;;;3.42;1.67;;;22.60;99.90;;;;;;5013737;28;20188;-58
2022/08/23 07:36:16;;;;;;;2.95;1.85;;;22.80;99.90;;;;;;5012346;28;20234;-58
2022/08/23 07:38:43;;;;;;;2.95;1.40;;;22.80;99.90;;;;;;5012267;28;20183;-58
2022/08/23 07:41:10;;;;;;;2.97;1.40;;;22.90;99.90;;;;;;5013694;28;20172;-58
2022/08/23 07:43:36;;;;;;;2.78;1.60;;;23.10;99.90;;;;;;5012456;28;20251;-58
2022/08/23 07:46:02;;;;;;;1.25;1.15;;;23.30;99.90;;;;;;5013544;28;20661;-58
2022/08/23 07:48:28;;;;;;;1.70;1.48;;;23.50;99.90;;;;;;5012087;28;20212;-58
2022/08/23 07:50:58;;;;;;;1.90;1.17;;;23.60;99.90;;;;;;5013412;28;20185;-58
2022/08/23 07:53:24;;;;;;;1.48;1.17;;;23.60;99.90;;;;;;5013417;28;20629;-59
2022/08/23 07:55:51;;;;;;;3.38;1.00;;;23.60;99.90;;;;;;5012199;28;20172;-58
2022/08/23 07:58:16;;;;;;;1.58;1.20;;;23.80;99.90;;;;;;4995987;28;20181;-58
2022/08/23 08:00:43;;;;;;;1.30;1.20;;;23.90;99.90;;;;;;4999904;28;20696;-58
2022/08/23 08:03:10;;;;;;;1.30;1.20;;;24.10;99.90;;;;;;5016171;28;20235;-59
2022/08/23 08:05:36;;;;;;;2.47;1.40;;;24.30;99.90;;;;;;5017285;28;20246;-58
2022/08/23 08:08:03;;;;;;;1.27;1.17;;;24.50;99.90;;;;;;5016216;28;20300;-59
2022/08/23 08:10:30;;;;;;;1.35;1.05;;;24.70;99.90;;;;;;5016267;28;20196;-59
2022/08/23 08:12:56;;;;;;;1.33;1.20;;;24.70;99.90;;;;;;5016123;28;20271;-59
2022/08/23 08:15:22;;;;;;;1.58;1.10;;;24.90;99.90;;;;;;5016017;28;20287;-59
2022/08/23 08:17:50;;;;;;;1.50;0.80;;;25.10;99.90;;;;;;5017120;28;20181;-59
2022/08/23 08:20:18;;;;;;;1.45;1.00;;;24.70;99.90;;;;;;5015817;28;20633;-58
2022/08/23 08:22:44;;;;;;;2.00;0.88;;;24.40;99.90;;;;;;5017182;28;20700;-58
2022/08/23 08:25:10;;;;;;;1.27;1.02;;;24.40;99.90;;;;;;5016113;28;20274;-58
2022/08/23 08:27:36;;;;;;;2.25;1.20;;;24.70;99.90;;;;;;5016715;28;20209;-58
2022/08/23 08:30:07;;;;;;;1.92;1.02;;;25.00;99.90;;;;;;5017045;28;20188;-58
2022/08/23 08:32:33;;;;;;;2.28;1.00;;;25.20;99.90;;;;;;5015605;28;20189;-58
2022/08/23 08:34:59;;;;;;;1.25;0.80;;;25.20;99.90;;;;;;5016781;28;20176;-58
2022/08/23 08:37:25;;;;;;;1.60;0.88;;;25.10;99.90;;;;;;5017236;28;20169;-58
2022/08/23 08:39:52;;;;;;;1.20;1.00;;;25.10;99.90;;;;;;5015758;28;20598;-57
2022/08/23 08:42:36;;;;;;;2.05;1.20;;;25.20;99.90;;;;;;5016844;28;20207;-59
2022/08/23 08:45:18;;;;;;;1.10;1.02;;;25.40;99.90;;;;;;5016677;28;20614;-57
2022/08/23 08:47:59;;;;;;;2.47;0.93;;;25.70;99.90;;;;;;5016607;28;20704;-60
2022/08/23 08:50:31;;;;;;;0.73;0.73;;;25.50;99.90;;;;;;5016732;28;20169;-59
2022/08/23 08:53:06;;;;;;;0.93;0.90;;;25.70;99.90;;;;;;5016543;28;20176;-58
2022/08/23 08:55:44;;;;;;;1.55;0.98;;;25.80;99.90;;;;;;5016511;28;20199;-58
2022/08/23 08:58:22;;;;;;;1.58;1.15;;;26.00;99.90;;;;;;5016593;28;20229;-58
2022/08/23 09:00:48;;;;;;;0.95;0.85;;;25.90;99.90;;;;;;5016468;28;20176;-58
2022/08/23 09:03:19;;;;;;;1.00;0.90;;;25.70;99.90;;;;;;5014998;28;20590;-57
2022/08/23 09:05:58;;;;;;;1.52;1.20;;;25.60;99.90;;;;;;5016232;28;20181;-58
2022/08/23 09:08:30;;;;;;;2.35;0.82;;;25.50;99.90;;;;;;5016067;28;20561;-58
2022/08/23 09:11:21;;;;;;;0.85;0.82;;;25.60;99.90;;;;;;5016243;28;20677;-58
2022/08/23 09:14:24;;;;;;;0.90;0.73;;;25.60;99.90;;;;;;5016198;28;20172;-58
2022/08/23 09:16:56;;;;;;;0.88;0.80;;;25.60;99.90;;;;;;5016318;28;20184;-57
2022/08/23 09:19:24;;;;;;;0.82;0.82;;;25.80;99.90;;;;;;5015978;28;20177;-58
2022/08/23 09:21:59;;;;;;;1.35;1.00;;;25.90;99.90;;;;;;5016072;28;20183;-58
2022/08/23 09:24:25;;;;;;;1.63;1.20;;;26.00;99.90;;;;;;5016042;28;20168;-58
2022/08/23 09:26:52;;;;;;;0.95;0.75;;;26.00;99.90;;;;;;5015740;28;20208;-58
2022/08/23 09:29:24;;;;;;;1.98;1.13;;;26.20;99.90;;;;;;5015617;28;20227;-58
2022/08/23 09:31:57;;;;;;;1.95;1.20;;;26.30;99.90;;;;;;5015888;28;20176;-58
2022/08/23 09:34:43;;;;;;;1.45;1.30;;;26.60;99.90;;;;;;5015794;28;20184;-58
2022/08/23 09:37:17;;;;;;;0.90;0.88;;;26.80;99.90;;;;;;5015451;28;20224;-58
2022/08/23 09:40:03;;;;;;;1.85;0.90;;;27.00;99.90;;;;;;5015826;28;20168;-58
2022/08/23 09:42:35;;;;;;;2.60;1.17;;;27.00;99.90;;;;;;5015724;28;20644;-58
2022/08/23 09:45:04;;;;;;;0.80;0.80;;;27.20;99.90;;;;;;5015551;28;20168;-58
2022/08/23 09:47:33;;;;;;;1.23;1.10;;;27.10;99.90;;;;;;4997820;28;20555;-58
2022/08/23 09:50:25;;;;;;;1.55;1.00;;;27.30;99.90;;;;;;5015354;28;20184;-59
2022/08/23 09:52:59;;;;;;;2.33;1.20;;;27.60;99.90;;;;;;4999771;28;20192;-59
2022/08/23 09:55:27;;;;;;;1.20;0.95;;;27.60;99.50;;;;;;5015310;28;20260;-59
2022/08/23 09:57:53;;;;;;;1.02;0.90;;;27.70;99.80;;;;;;5015396;28;20187;-58
2022/08/23 10:00:59;;;;;;;1.50;0.95;;;27.70;99.50;;;;;;5015162;28;20530;-58
2022/08/23 10:03:27;;;;;;;1.38;0.90;;;27.60;99.90;;;;;;5015302;28;20169;-58
2022/08/23 10:05:57;;;;;;;1.02;0.93;;;27.70;99.90;;;;;;5015029;28;20275;-58
2022/08/23 10:08:31;;;;;;;1.52;1.10;;;27.70;99.90;;;;;;5015048;28;20613;-58
2022/08/23 10:11:16;;;;;;;1.27;0.60;;;27.70;99.50;;;;;;5015026;28;20187;-58
2022/08/23 10:13:43;;;;;;;0.80;0.55;;;27.80;99.90;;;;;;5015009;28;20259;-58
2022/08/23 10:16:27;;;;;;;0.85;0.57;;;27.70;99.50;;;;;;5014017;28;20173;-58
2022/08/23 10:19:22;;;;;;;2.03;0.60;;;27.70;99.90;;;;;;5014832;28;20180;-58
2022/08/23 10:22:02;;;;;;;0.47;0.47;;;27.90;99.60;;;;;;5013082;28;20177;-58
2022/08/23 10:24:34;;;;;;;0.95;0.77;;;28.00;99.50;;;;;;5015247;28;20176;-58
2022/08/23 10:30:08;;;;;;;1.13;0.60;;;28.40;99.70;;;;;;5015048;28;20192;-58
2022/08/23 10:33:10;;;;;;;0.45;0.43;;;28.30;99.00;;;;;;5014769;28;20514;-58
2022/08/23 10:36:17;;;;;;;0.75;0.50;;;28.10;99.10;;;;;;5014411;28;20207;-58
2022/08/23 10:39:10;;;;;;;0.82;0.40;;;27.50;99.70;;;;;;5013564;28;20184;-58
2022/08/23 10:41:58;;;;;;;1.20;0.50;;;26.90;99.90;;;;;;5014703;28;20218;-58
2022/08/23 10:44:48;;;;;;;0.22;0.22;;;26.80;99.90;;;;;;5014797;28;20189;-58
2022/08/23 10:47:30;;;;;;;0.47;0.40;;;26.60;99.90;;;;;;5014608;28;20196;-58
2022/08/23 10:49:59;;;;;;;0.40;0.25;;;26.70;99.90;;;;;;5013167;28;20184;-58
2022/08/23 10:52:47;;;;;;;0.20;0.20;;;26.70;99.90;;;;;;5014394;28;20211;-58
2022/08/23 10:55:34;;;;;;;0.20;0.20;;;26.70;99.90;;;;;;5014480;28;20180;-58
2022/08/23 10:58:04;;;;;;;0.77;0.40;;;26.90;99.90;;;;;;5014180;28;20176;-58
2022/08/23 11:00:31;;;;;;;0.30;0.30;;;27.20;99.90;;;;;;5014182;28;20169;-58
2022/08/23 11:03:03;;;;;;;0.38;0.38;;;27.40;99.90;;;;;;5012945;28;20180;-58
2022/08/23 11:05:34;;;;;;;0.45;0.45;;;27.60;99.90;;;;;;5013235;28;20181;-58
2022/08/23 11:07:59;;;;;;;0.20;0.20;;;27.70;99.90;;;;;;5014312;28;20696;-58
2022/08/23 11:10:30;;;;;;;0.40;0.40;;;27.80;99.90;;;;;;5013934;28;20189;-58
2022/08/23 11:13:16;;;;;;;0.17;0.17;;;27.70;99.60;;;;;;5014132;28;20180;-58
2022/08/23 11:15:53;;;;;;;0.63;0.20;;;27.70;99.90;;;;;;5006773;28;20189;-58
2022/08/23 11:18:39;;;;;;;0.30;0.30;;;27.70;99.90;;;;;;5014082;28;20187;-58
2022/08/23 11:21:17;;;;;;;0.30;0.30;;;28.00;99.80;;;;;;5012656;28;20188;-58
2022/08/23 11:23:45;;;;;;;0.63;0.40;;;28.20;99.30;;;;;;5013692;28;20174;-58
2022/08/23 11:26:38;;;;;;;0.63;0.40;;;28.30;99.00;;;;;;5013850;28;20165;-58
2022/08/23 11:29:09;;;;;;;0.55;0.30;;;28.40;98.80;;;;;;5013494;28;20211;-58
2022/08/23 11:31:35;;;;;;;0.25;0.25;;;28.50;99.20;;;;;;5013696;28;20188;-58
2022/08/23 11:34:18;;;;;;;0.30;0.30;;;28.60;99.30;;;;;;5012673;28;20222;-58
2022/08/23 11:37:25;;;;;;;0.20;0.20;;;28.80;98.40;;;;;;5013912;28;20264;-58
2022/08/23 11:39:56;;;;;;;0.40;0.30;;;28.50;98.10;;;;;;5013603;28;20507;-58
2022/08/23 11:42:30;;;;;;;0.30;0.30;;;28.30;98.80;;;;;;5013470;28;20168;-58
2022/08/23 11:44:56;;;;;;;0.45;0.43;;;28.40;99.30;;;;;;5013772;28;20633;-58
2022/08/23 11:47:42;;;;;;;0.13;0.13;;;28.50;98.50;;;;;;5012658;28;20214;-58
2022/08/23 11:50:50;;;;;;;0.17;0.17;;;28.60;97.70;;;;;;5013715;28;20168;-58
2022/08/23 11:53:27;;;;;;;0.28;0.28;;;28.70;98.50;;;;;;5013684;28;20533;-58
2022/08/23 11:56:08;;;;;;;0.45;0.30;;;28.90;97.80;;;;;;5013543;28;20222;-58
2022/08/23 11:58:55;;;;;;;0.30;0.30;;;28.90;98.40;;;;;;5013564;28;20688;-58
2022/08/23 12:01:32;;;;;;;0.30;0.20;;;29.10;98.20;;;;;;5012129;28;20597;-58
2022/08/23 12:04:06;;;;;;;0.38;0.38;;;29.10;97.70;;;;;;5013768;28;20171;-58
2022/08/23 12:06:43;;;;;;;0.75;0.40;;;29.10;98.00;;;;;;5013392;28;20189;-58
2022/08/23 12:09:23;;;;;;;0.22;0.22;;;28.70;97.90;;;;;;5013404;28;20179;-58
2022/08/23 12:11:54;;;;;;;0.65;0.30;;;28.60;98.50;;;;;;5013320;28;20231;-58
2022/08/23 12:14:40;;;;;;;0.35;0.30;;;28.70;98.30;;;;;;5013388;28;20172;-58
2022/08/23 12:17:11;;;;;;;0.35;0.32;;;28.90;98.10;;;;;;5013296;28;20522;-57
2022/08/23 12:19:40;;;;;;;0.30;0.30;;;28.90;97.80;;;;;;5013182;28;20626;-58
2022/08/23 12:22:20;;;;;;;0.30;0.30;;;28.90;98.00;;;;;;5013162;28;20693;-58
2022/08/23 12:24:56;;;;;;;0.98;0.40;;;29.20;97.80;;;;;;5013436;28;20168;-58
2022/08/23 12:27:27;;;;;;;0.50;0.50;;;29.20;98.00;;;;;;5013104;28;20196;-58
2022/08/23 12:30:19;;;;;;;0.30;0.30;;;29.30;97.70;;;;;;5013204;28;20258;-58
2022/08/23 12:32:50;;;;;;;0.40;0.40;;;29.10;98.10;;;;;;5012116;28;20181;-58
2022/08/23 12:35:43;;;;;;;0.38;0.38;;;28.80;98.20;;;;;;5013185;28;20177;-58
2022/08/23 12:38:41;;;;;;;1.95;0.38;;;28.70;98.30;;;;;;5013112;28;20173;-58
2022/08/23 12:41:20;;;;;;;0.50;0.50;;;28.60;98.80;;;;;;4997480;28;20185;-58
2022/08/23 12:43:59;;;;;;;0.40;0.40;;;29.00;97.40;;;;;;5013148;28;20204;-58
2022/08/23 12:46:46;;;;;;;0.50;0.50;;;29.20;97.30;;;;;;5014825;28;20187;-58
2022/08/23 12:49:23;;;;;;;0.35;0.35;;;29.50;97.30;;;;;;5016874;28;20173;-58
2022/08/23 12:51:51;;;;;;;0.47;0.40;;;29.50;97.40;;;;;;5016649;28;20169;-58
2022/08/23 12:54:23;;;;;;;0.45;0.45;;;29.30;97.20;;;;;;5016529;28;20184;-58
2022/08/23 12:56:52;;;;;;;0.35;0.35;;;29.10;97.40;;;;;;5016629;28;20311;-58
2022/08/23 12:59:35;;;;;;;1.13;0.32;;;29.10;97.50;;;;;;5016974;28;20200;-58
2022/08/23 13:02:06;;;;;;;0.30;0.30;;;29.00;97.70;;;;;;5016699;28;20172;-58
2022/08/23 13:04:36;;;;;;;0.43;0.43;;;29.30;97.80;;;;;;5016498;28;20642;-58
2022/08/23 13:07:07;;;;;;;0.20;0.20;;;29.40;97.00;;;;;;5016574;28;20200;-58
2022/08/23 13:09:39;;;;;;;0.40;0.40;;;29.30;97.10;;;;;;5016334;28;20173;-58
2022/08/23 13:12:09;;;;;;;0.30;0.30;;;29.20;97.60;;;;;;5016234;28;20177;-57
2022/08/23 13:14:42;;;;;;;0.50;0.50;;;29.20;97.70;;;;;;5016267;28;20577;-57
2022/08/23 13:17:25;;;;;;;0.45;0.40;;;29.10;97.90;;;;;;5016276;28;20168;-58
2022/08/23 13:20:22;;;;;;;0.40;0.40;;;29.10;97.30;;;;;;5014810;28;20306;-57